createdAt,value
2022-08-22T00:00:17.101Z,60.54
2022-08-22T00:02:43.289Z,59.50
2022-08-22T00:02:48.934Z,58.08
2022-08-22T00:03:12.457Z,55.31
2022-08-22T00:03:15.737Z,62.15
2022-08-22T00:03:18.498Z,62.72
2022-08-22T00:06:03.601Z,61.03
2022-08-22T00:08:50.082Z,61.73
2022-08-22T00:11:33.004Z,63.62
2022-08-22T00:14:26.313Z,62.36
2022-08-22T00:17:03.134Z,62.81
2022-08-22T00:19:46.112Z,63.50
2022-08-22T00:22:24.463Z,61.16
2022-08-22T00:25:01.269Z,63.62
2022-08-22T00:27:45.049Z,62.84
2022-08-22T00:30:18.516Z,61.58
2022-08-22T00:32:53.370Z,61.96
2022-08-22T00:35:31.013Z,61.93
2022-08-22T00:38:10.538Z,63.05
2022-08-22T00:40:58.002Z,62.71
2022-08-22T00:44:05.047Z,64.42
2022-08-22T00:47:04.272Z,62.18
2022-08-22T00:50:09.083Z,64.54
2022-08-22T00:53:09.614Z,62.43
2022-08-22T00:55:52.449Z,63.18
2022-08-22T00:59:22.666Z,62.78
2022-08-22T01:02:08.627Z,63.22
2022-08-22T01:04:53.654Z,63.73
2022-08-22T01:07:45.196Z,64.48
2022-08-22T01:10:36.947Z,64.15
2022-08-22T01:13:36.813Z,65.75
2022-08-22T01:16:21.591Z,65.23
2022-08-22T01:19:39.688Z,62.74
2022-08-22T01:23:05.213Z,64.78
2022-08-22T01:26:20.486Z,64.69
2022-08-22T01:29:31.557Z,57.60
2022-08-22T01:33:07.775Z,60.09
2022-08-22T01:36:34.844Z,61.91
2022-08-22T01:39:43.445Z,62.17
2022-08-22T01:42:50.568Z,62.92
2022-08-22T01:46:07.644Z,61.16
2022-08-22T01:48:43.906Z,63.56
2022-08-22T01:51:25.830Z,63.27
2022-08-22T01:54:02.290Z,61.70
2022-08-22T01:56:39.909Z,61.16
2022-08-22T01:59:14.966Z,63.67
2022-08-22T02:02:00.605Z,63.44
2022-08-22T02:04:40.715Z,63.17
2022-08-22T02:07:19.512Z,63.55
2022-08-22T02:10:02.741Z,62.78
2022-08-22T02:12:45.058Z,63.46
2022-08-22T02:15:24.096Z,63.77
2022-08-22T02:18:04.584Z,62.17
2022-08-22T02:20:41.567Z,64.68
2022-08-22T02:23:23.733Z,64.29
2022-08-22T02:26:09.378Z,60.91
2022-08-22T02:28:59.216Z,63.31
2022-08-22T02:31:41.011Z,61.64
2022-08-22T02:34:54.891Z,62.51
2022-08-22T02:37:36.415Z,63.07
2022-08-22T02:40:21.768Z,59.28
2022-08-22T02:42:59.914Z,62.47
2022-08-22T02:45:39.155Z,62.78
2022-08-22T02:48:37.213Z,63.11
2022-08-22T02:51:17.839Z,62.26
2022-08-22T02:53:57.836Z,63.14
2022-08-22T02:56:36.061Z,62.06
2022-08-22T02:59:21.776Z,63.64
2022-08-22T03:01:51.363Z,64.19
2022-08-22T03:04:46.716Z,61.94
2022-08-22T03:07:32.427Z,63.99
2022-08-22T03:10:13.928Z,61.40
2022-08-22T03:12:57.633Z,61.66
2022-08-22T03:15:34.748Z,64.15
2022-08-22T03:18:14.851Z,62.04
2022-08-22T03:20:50.850Z,62.41
2022-08-22T03:23:33.007Z,62.17
2022-08-22T03:26:10.091Z,62.97
2022-08-22T03:28:59.116Z,65.01
2022-08-22T03:31:32.260Z,62.76
2022-08-22T03:34:23.441Z,64.62
2022-08-22T03:37:07.374Z,62.29
2022-08-22T03:39:57.873Z,64.70
2022-08-22T03:43:00.870Z,66.87
2022-08-22T03:46:24.091Z,64.78
2022-08-22T03:49:31.522Z,62.12
2022-08-22T03:52:29.145Z,59.69
2022-08-22T03:55:22.605Z,56.85
2022-08-22T03:58:36.977Z,59.69
2022-08-22T04:01:56.906Z,57.26
2022-08-22T04:05:15.368Z,58.67
2022-08-22T04:08:21.122Z,63.12
2022-08-22T04:11:32.579Z,61.08
2022-08-22T04:14:29.644Z,60.00
2022-08-22T04:17:32.987Z,67.81
2022-08-22T04:20:40.431Z,68.85
2022-08-22T04:23:29.201Z,68.88
2022-08-22T04:26:12.629Z,71.71
2022-08-22T04:28:47.575Z,73.42
2022-08-22T04:31:23.450Z,74.61
2022-08-22T04:34:03.399Z,75.23
2022-08-22T04:36:39.503Z,76.17
2022-08-22T04:39:18.643Z,72.16
2022-08-22T04:41:54.186Z,65.87
2022-08-22T04:44:38.709Z,71.27
2022-08-22T04:47:21.569Z,67.00
2022-08-22T04:49:59.679Z,68.20
2022-08-22T04:52:45.557Z,67.31
2022-08-22T04:55:30.311Z,67.71
2022-08-22T04:58:12.475Z,61.53
2022-08-22T05:00:50.257Z,60.80
2022-08-22T05:03:23.677Z,65.41
2022-08-22T05:05:55.710Z,60.59
2022-08-22T05:08:28.446Z,64.24
2022-08-22T05:10:58.441Z,61.12
2022-08-22T05:13:33.576Z,59.32
2022-08-22T05:16:08.519Z,62.77
2022-08-22T05:18:44.150Z,62.33
2022-08-22T05:21:17.309Z,57.99
2022-08-22T05:23:54.754Z,64.31
2022-08-22T05:26:24.158Z,60.31
2022-08-22T05:28:58.653Z,58.83
2022-08-22T05:31:31.860Z,62.82
2022-08-22T05:34:06.302Z,55.45
2022-08-22T05:36:41.754Z,61.57
2022-08-22T05:39:15.170Z,63.86
2022-08-22T05:41:44.771Z,62.35
2022-08-22T05:44:22.298Z,63.91
2022-08-22T05:47:01.745Z,65.33
2022-08-22T05:49:36.810Z,65.30
2022-08-22T05:52:18.038Z,61.12
2022-08-22T05:54:54.765Z,64.64
2022-08-22T05:57:28.986Z,65.19
2022-08-22T06:00:05.945Z,64.87
2022-08-22T06:02:57.006Z,63.97
2022-08-22T06:05:29.771Z,64.89
2022-08-22T06:08:09.848Z,68.14
2022-08-22T06:10:48.180Z,58.96
2022-08-22T06:13:25.538Z,57.33
2022-08-22T06:16:07.276Z,66.69
2022-08-22T06:18:42.669Z,67.07
2022-08-22T06:21:20.677Z,66.15
2022-08-22T06:23:58.611Z,65.03
2022-08-22T06:26:34.747Z,63.09
2022-08-22T06:29:05.586Z,68.39
2022-08-22T06:31:41.467Z,66.87
2022-08-22T06:34:14.615Z,64.09
2022-08-22T06:36:48.198Z,61.21
2022-08-22T06:39:24.397Z,65.13
2022-08-22T06:42:01.162Z,62.24
2022-08-22T06:44:34.166Z,58.79
2022-08-22T06:47:10.383Z,57.02
2022-08-22T06:49:41.987Z,57.48
2022-08-22T06:52:15.638Z,65.79
2022-08-22T06:54:49.442Z,65.57
2022-08-22T06:57:32.270Z,63.34
2022-08-22T07:00:07.617Z,64.05
2022-08-22T07:02:41.730Z,60.78
2022-08-22T07:05:18.949Z,63.31
2022-08-22T07:07:48.391Z,57.18
2022-08-22T07:10:19.716Z,59.63
2022-08-22T07:12:54.885Z,63.19
2022-08-22T07:15:34.465Z,64.98
2022-08-22T07:18:10.130Z,70.34
2022-08-22T07:20:45.343Z,66.20
2022-08-22T07:23:31.670Z,68.80
2022-08-22T07:26:19.701Z,70.66
2022-08-22T07:28:57.845Z,70.44
2022-08-22T07:31:39.851Z,71.13
2022-08-22T07:34:42.066Z,72.73
2022-08-22T07:37:19.018Z,70.54
2022-08-22T07:39:55.586Z,73.95
2022-08-22T07:42:39.744Z,74.83
2022-08-22T07:45:13.605Z,77.43
2022-08-22T07:48:02.982Z,76.54
2022-08-22T07:50:35.535Z,73.32
2022-08-22T07:53:18.955Z,75.09
2022-08-22T07:55:49.423Z,74.12
2022-08-22T07:58:24.039Z,74.03
2022-08-22T08:00:54.519Z,75.32
2022-08-22T08:03:29.118Z,70.68
2022-08-22T08:05:58.645Z,72.81
2022-08-22T08:08:33.328Z,75.65
2022-08-22T08:11:03.449Z,72.42
2022-08-22T08:13:39.377Z,73.54
2022-08-22T08:16:13.273Z,73.06
2022-08-22T08:18:44.628Z,71.76
2022-08-22T08:21:27.616Z,72.39
2022-08-22T08:23:57.827Z,71.37
2022-08-22T08:26:33.745Z,73.66
2022-08-22T08:29:04.501Z,70.94
2022-08-22T08:31:43.136Z,72.81
2022-08-22T08:34:20.398Z,72.27
2022-08-22T08:36:54.348Z,72.18
2022-08-22T08:39:35.114Z,74.58
2022-08-22T08:43:05.316Z,74.37
2022-08-22T08:46:07.082Z,73.11
2022-08-22T08:49:06.392Z,75.14
2022-08-22T08:52:27.443Z,76.01
2022-08-22T08:55:22.846Z,77.16
2022-08-22T08:58:26.398Z,78.26
2022-08-22T09:01:19.546Z,76.86
2022-08-22T09:04:25.616Z,70.69
2022-08-22T09:07:33.018Z,72.61
2022-08-22T09:10:31.655Z,74.36
2022-08-22T09:13:41.592Z,71.66
2022-08-22T09:16:46.264Z,68.41
2022-08-22T09:20:03.281Z,69.20
2022-08-22T09:23:20.225Z,69.03
2022-08-22T09:25:54.155Z,69.41
2022-08-22T09:28:32.394Z,69.17
2022-08-22T09:31:47.955Z,70.56
2022-08-22T09:34:28.459Z,71.77
2022-08-22T09:37:18.137Z,63.45
2022-08-22T09:40:01.383Z,65.03
2022-08-22T09:42:45.047Z,66.42
2022-08-22T09:45:50.038Z,67.38
2022-08-22T09:49:01.542Z,60.10
2022-08-22T09:51:40.883Z,65.28
2022-08-22T09:54:31.382Z,65.13
2022-08-22T09:57:16.194Z,63.60
2022-08-22T10:00:13.139Z,60.86
2022-08-22T10:02:54.245Z,57.34
2022-08-22T10:05:40.675Z,62.48
2022-08-22T10:08:36.738Z,62.87
2022-08-22T10:11:27.023Z,61.79
2022-08-22T10:14:05.290Z,61.87
2022-08-22T10:16:54.073Z,58.73
2022-08-22T10:19:33.879Z,62.39
2022-08-22T10:22:29.907Z,58.91
2022-08-22T10:25:26.385Z,54.80
2022-08-22T10:28:32.682Z,51.53
2022-08-22T10:31:28.637Z,51.82
2022-08-22T10:34:07.994Z,51.38
2022-08-22T10:37:01.185Z,48.59
2022-08-22T10:39:44.002Z,46.05
2022-08-22T10:42:30.147Z,49.07
2022-08-22T10:45:23.582Z,46.43
2022-08-22T10:48:42.820Z,51.57
2022-08-22T10:51:28.827Z,49.67
2022-08-22T10:54:10.542Z,47.69
2022-08-22T10:56:48.785Z,46.33
2022-08-22T10:59:33.080Z,48.10
2022-08-22T11:02:22.885Z,47.78
2022-08-22T11:05:30.816Z,46.57
2022-08-22T11:08:22.036Z,47.16
2022-08-22T11:11:17.623Z,46.14
2022-08-22T11:14:12.328Z,45.71
2022-08-22T11:16:58.382Z,46.32
2022-08-22T11:19:46.784Z,45.69
2022-08-22T11:22:31.645Z,46.51
2022-08-22T11:25:29.167Z,45.82
2022-08-22T11:29:12.300Z,47.30
2022-08-22T11:32:00.432Z,46.03
2022-08-22T11:34:53.175Z,46.29
2022-08-22T11:37:48.073Z,46.43
2022-08-22T11:40:38.571Z,44.87
2022-08-22T11:43:32.747Z,48.01
2022-08-22T11:46:20.394Z,46.90
2022-08-22T11:49:35.523Z,44.58
2022-08-22T11:52:23.809Z,47.73
2022-08-22T11:55:21.451Z,44.96
2022-08-22T11:57:54.114Z,44.02
2022-08-22T12:00:37.580Z,47.34
2022-08-22T12:03:45.028Z,49.46
2022-08-22T12:06:56.644Z,48.71
2022-08-22T12:09:43.214Z,48.83
2022-08-22T12:12:29.053Z,49.14
2022-08-22T12:15:13.289Z,47.31
2022-08-22T12:18:21.715Z,49.44
2022-08-22T12:21:22.763Z,47.91
2022-08-22T12:24:30.545Z,47.22
2022-08-22T12:27:29.579Z,45.54
2022-08-22T12:30:14.724Z,47.57
2022-08-22T12:33:43.245Z,46.81
2022-08-22T12:36:37.436Z,48.30
2022-08-22T12:39:36.054Z,49.65
2022-08-22T12:42:43.130Z,44.55
2022-08-22T12:45:50.879Z,48.17
2022-08-22T12:48:42.386Z,46.89
2022-08-22T12:51:29.881Z,47.72
2022-08-22T12:54:32.126Z,47.83
2022-08-22T12:57:24.222Z,51.74
2022-08-22T12:59:58.207Z,53.07
2022-08-22T13:02:34.069Z,51.57
2022-08-22T13:05:19.814Z,53.53
2022-08-22T13:07:57.181Z,54.44
2022-08-22T13:10:43.513Z,54.45
2022-08-22T13:13:36.849Z,53.17
2022-08-22T13:16:12.023Z,51.30
2022-08-22T13:18:53.364Z,52.49
2022-08-22T13:21:31.637Z,49.76
2022-08-22T13:24:12.534Z,54.35
2022-08-22T13:26:53.163Z,51.76
2022-08-22T13:29:39.451Z,55.26
2022-08-22T13:32:23.870Z,48.67
2022-08-22T13:34:58.299Z,52.11
2022-08-22T13:37:36.988Z,49.06
2022-08-22T13:40:14.218Z,47.72
2022-08-22T13:42:48.935Z,47.89
2022-08-22T13:45:24.275Z,51.85
2022-08-22T13:47:59.573Z,50.90
2022-08-22T13:50:35.851Z,52.90
2022-08-22T13:53:35.931Z,50.16
2022-08-22T13:56:15.779Z,49.44
2022-08-22T13:58:48.106Z,50.29
2022-08-22T14:01:48.674Z,52.36
2022-08-22T14:04:32.319Z,52.81
2022-08-22T14:07:34.587Z,52.43
2022-08-22T14:10:14.812Z,48.93
2022-08-22T14:13:17.710Z,51.68
2022-08-22T14:15:47.430Z,53.23
2022-08-22T14:18:22.300Z,51.42
2022-08-22T14:21:27.176Z,51.01
2022-08-22T14:24:00.983Z,50.64
2022-08-22T14:26:33.002Z,51.02
2022-08-22T14:29:18.662Z,49.44
2022-08-22T14:31:59.362Z,50.57
2022-08-22T14:34:31.343Z,49.39
2022-08-22T14:37:07.980Z,49.31
2022-08-22T14:39:43.659Z,51.69
2022-08-22T14:42:19.710Z,53.19
2022-08-22T14:45:06.664Z,51.31
2022-08-22T14:48:14.218Z,50.69
2022-08-22T14:50:47.510Z,51.83
2022-08-22T14:53:27.676Z,50.47
2022-08-22T14:56:02.947Z,51.69
2022-08-22T14:58:36.842Z,53.41
2022-08-22T15:01:15.274Z,50.51
2022-08-22T15:03:45.666Z,50.52
2022-08-22T15:06:32.328Z,52.55
2022-08-22T15:09:07.898Z,53.42
2022-08-22T15:11:42.242Z,54.07
2022-08-22T15:14:23.942Z,55.79
2022-08-22T15:16:58.669Z,52.26
2022-08-22T15:19:35.745Z,52.69
2022-08-22T15:22:13.603Z,54.71
2022-08-22T15:24:51.253Z,53.71
2022-08-22T15:27:27.706Z,56.99
2022-08-22T15:30:00.275Z,55.40
2022-08-22T15:32:34.150Z,54.75
2022-08-22T15:35:16.185Z,55.59
2022-08-22T15:38:00.222Z,52.46
2022-08-22T15:40:40.668Z,52.42
2022-08-22T15:43:23.104Z,54.52
2022-08-22T15:46:09.891Z,54.08
2022-08-22T15:49:01.633Z,55.58
2022-08-22T15:51:41.086Z,57.92
2022-08-22T15:54:24.383Z,52.32
2022-08-22T15:57:17.515Z,51.77
2022-08-22T15:59:58.991Z,53.55
2022-08-22T16:02:35.622Z,52.66
2022-08-22T16:05:27.403Z,53.90
2022-08-22T16:08:06.713Z,53.25
2022-08-22T16:10:41.581Z,54.37
2022-08-22T16:13:38.285Z,57.28
2022-08-22T16:16:13.167Z,55.64
2022-08-22T16:19:19.815Z,54.54
2022-08-22T16:22:14.827Z,53.38
2022-08-22T16:25:10.409Z,57.60
2022-08-22T16:27:57.916Z,57.30
2022-08-22T16:30:40.122Z,56.33
2022-08-22T16:33:18.418Z,57.14
2022-08-22T16:36:41.867Z,55.37
2022-08-22T16:39:34.339Z,58.72
2022-08-22T16:42:28.230Z,58.10
2022-08-22T16:45:10.963Z,58.18
2022-08-22T16:47:52.707Z,59.04
2022-08-22T16:50:41.003Z,56.45
2022-08-22T16:53:47.889Z,56.83
2022-08-22T16:56:28.176Z,57.46
2022-08-22T16:59:23.876Z,57.19
2022-08-22T17:02:24.353Z,56.66
2022-08-22T17:05:07.839Z,55.46
2022-08-22T17:07:54.607Z,56.45
2022-08-22T17:11:01.207Z,56.64
2022-08-22T17:14:03.943Z,55.02
2022-08-22T17:17:00.786Z,57.33
2022-08-22T17:19:48.172Z,57.42
2022-08-22T17:22:29.827Z,58.45
2022-08-22T17:25:28.863Z,54.69
2022-08-22T17:28:13.831Z,54.06
2022-08-22T17:31:01.327Z,55.18
2022-08-22T17:34:04.602Z,56.00
2022-08-22T17:37:09.269Z,55.26
2022-08-22T17:40:09.429Z,53.42
2022-08-22T17:43:07.722Z,50.06
2022-08-22T17:46:00.803Z,49.10
2022-08-22T17:48:36.802Z,48.44
2022-08-22T17:51:28.307Z,49.35
2022-08-22T17:54:04.545Z,52.21
2022-08-22T17:56:45.474Z,54.23
2022-08-22T17:59:22.558Z,48.94
2022-08-22T18:01:59.011Z,52.06
2022-08-22T18:04:36.197Z,52.88
2022-08-22T18:07:46.351Z,48.52
2022-08-22T18:10:33.742Z,48.94
2022-08-22T18:13:09.556Z,51.04
2022-08-22T18:15:46.878Z,49.17
2022-08-22T18:18:31.272Z,50.09
2022-08-22T18:21:09.397Z,51.85
2022-08-22T18:23:46.214Z,51.43
2022-08-22T18:26:29.292Z,50.13
2022-08-22T18:29:12.040Z,50.29
2022-08-22T18:31:55.261Z,48.99
2022-08-22T18:34:40.847Z,47.30
2022-08-22T18:37:23.287Z,46.85
2022-08-22T18:40:00.022Z,51.33
2022-08-22T18:42:35.004Z,48.16
2022-08-22T18:45:05.504Z,47.58
2022-08-22T18:47:38.080Z,48.61
2022-08-22T18:50:35.351Z,46.95
2022-08-22T18:53:38.660Z,47.87
2022-08-22T18:56:17.402Z,51.74
2022-08-22T18:59:05.519Z,48.63
2022-08-22T19:02:00.665Z,49.61
2022-08-22T19:05:21.203Z,48.00
2022-08-22T19:08:29.436Z,49.51
2022-08-22T19:11:25.494Z,48.99
2022-08-22T19:14:21.758Z,49.19
2022-08-22T19:17:32.393Z,51.31
2022-08-22T19:20:25.131Z,49.57
2022-08-22T19:23:46.444Z,51.89
2022-08-22T19:26:41.093Z,51.23
2022-08-22T19:30:22.065Z,49.92
2022-08-22T19:33:03.017Z,49.48
2022-08-22T19:35:46.206Z,48.14
2022-08-22T19:38:58.689Z,50.33
2022-08-22T19:41:48.176Z,48.88
2022-08-22T19:44:43.054Z,49.12
2022-08-22T19:47:29.931Z,48.67
2022-08-22T19:50:06.919Z,48.37
2022-08-22T19:53:14.036Z,50.67
2022-08-22T19:56:01.107Z,52.69
2022-08-22T19:58:48.083Z,52.68
2022-08-22T20:01:46.077Z,52.09
2022-08-22T20:04:42.258Z,50.00
2022-08-22T20:07:27.747Z,50.59
2022-08-22T20:10:20.091Z,51.38
2022-08-22T20:13:10.445Z,49.15
2022-08-22T20:16:22.120Z,49.24
2022-08-22T20:19:13.621Z,50.33
2022-08-22T20:21:50.299Z,52.79
2022-08-22T20:24:27.294Z,52.51
2022-08-22T20:27:15.673Z,53.25
2022-08-22T20:29:53.613Z,51.74
2022-08-22T20:32:26.121Z,51.98
2022-08-22T20:35:00.190Z,49.62
2022-08-22T20:38:05.255Z,52.15
2022-08-22T20:40:55.306Z,53.15
2022-08-22T20:43:34.417Z,52.08
2022-08-22T20:46:24.010Z,51.52
2022-08-22T20:48:56.025Z,52.01
2022-08-22T20:51:30.237Z,52.05
2022-08-22T20:54:09.974Z,51.88
2022-08-22T20:56:53.544Z,49.82
2022-08-22T20:59:32.598Z,51.46
2022-08-22T21:02:12.431Z,50.12
2022-08-22T21:05:01.377Z,53.48
2022-08-22T21:07:34.410Z,52.26
2022-08-22T21:10:26.673Z,52.90
2022-08-22T21:13:10.319Z,51.13
2022-08-22T21:15:43.817Z,55.12
2022-08-22T21:18:16.742Z,51.68
2022-08-22T21:20:45.797Z,51.99
2022-08-22T21:23:17.094Z,50.33
2022-08-22T21:25:56.645Z,55.85
2022-08-22T21:28:37.289Z,55.16
2022-08-22T21:31:15.065Z,53.97
2022-08-22T21:33:49.453Z,55.05
2022-08-22T21:36:28.782Z,55.74
2022-08-22T21:39:03.840Z,53.45
2022-08-22T21:41:38.762Z,51.92
2022-08-22T21:44:29.587Z,50.74
2022-08-22T21:47:16.538Z,52.88
2022-08-22T21:50:35.712Z,53.22
2022-08-22T21:53:11.807Z,51.65
2022-08-22T21:55:49.779Z,56.68
2022-08-22T21:58:37.270Z,53.98
2022-08-22T22:01:29.839Z,54.12
2022-08-22T22:04:08.476Z,57.61
2022-08-22T22:06:39.061Z,54.74
2022-08-22T22:09:14.987Z,58.40
2022-08-22T22:11:45.531Z,58.72
2022-08-22T22:14:14.485Z,60.95
2022-08-22T22:16:43.891Z,62.62
2022-08-22T22:19:13.229Z,64.84
2022-08-22T22:21:45.796Z,65.75
2022-08-22T22:24:14.909Z,68.03
2022-08-22T22:26:43.970Z,69.32
2022-08-22T22:29:12.979Z,69.32
2022-08-22T22:31:42.047Z,70.88
2022-08-22T22:34:11.144Z,71.28
2022-08-22T22:36:40.393Z,72.45
2022-08-22T22:39:12.223Z,76.07
2022-08-22T22:41:41.177Z,74.83
2022-08-22T22:44:10.621Z,80.71
2022-08-22T22:46:40.013Z,78.42
2022-08-22T22:49:09.169Z,79.10
2022-08-22T22:51:38.429Z,82.00
2022-08-22T22:54:07.680Z,86.48
2022-08-22T22:56:42.826Z,83.61
2022-08-22T22:59:17.213Z,87.55
2022-08-22T23:02:08.067Z,86.09
2022-08-22T23:04:44.702Z,90.51
2022-08-22T23:07:16.415Z,89.16
2022-08-22T23:09:45.745Z,86.99
2022-08-22T23:12:16.723Z,91.52
2022-08-22T23:14:46.031Z,87.56
2022-08-22T23:17:16.000Z,85.87
2022-08-22T23:19:46.319Z,84.62
2022-08-22T23:22:17.292Z,84.50
2022-08-22T23:24:47.445Z,84.59
2022-08-22T23:27:17.839Z,85.80
2022-08-22T23:29:47.470Z,85.65
2022-08-22T23:32:17.049Z,86.10
2022-08-22T23:34:48.931Z,85.98
2022-08-22T23:37:21.498Z,86.03
2022-08-22T23:39:55.597Z,86.32
2022-08-22T23:42:27.167Z,86.89
2022-08-22T23:44:56.692Z,90.30
2022-08-22T23:47:25.734Z,90.79
2022-08-22T23:49:57.269Z,92.53
2022-08-22T23:52:27.455Z,91.31
2022-08-22T23:54:57.135Z,97.94
2022-08-22T23:57:29.512Z,96.19
2022-08-22T23:59:58.749Z,92.83
